Anuket Pearl — 9HA2703 — position and weather

sailwx.info

Track history (hours):
 
Tides and Currents Weather Stations Pressure Air Temp Water Temp Dewpoint Dewpoint Depression Visibility Wind Speed Wind Dir Waves Ship Positions

Anuket Pearl

Last reported at 2018-Jun-21 00:14 UTC. Time now 2018-Jun-22 18:47 UTC.
Position N 05°08' E 000°12'.

Length 101 m; draft 7 m.

Type: Ship. MMSI: 215338000.

Date/timePositionNaut miles runAvg speedWind from/ knotsBaromVisibWave heightAir tempDewpointWater temp
2018-Jun-21 00:14N 05°08' E 000°12'2 8.3
2018-Jun-20 23:57N 05°10' E 000°11'4 8.2
2018-Jun-20 23:31N 05°14' E 000°10'4 8.1
2018-Jun-20 23:00N 05°17' E 000°09'4 8.2
2018-Jun-20 22:30N 05°21' E 000°07'4 7.9
2018-Jun-20 22:00N 05°25' E 000°05'4 7.9
2018-Jun-20 21:30N 05°28' E 000°04'4 7.8
2018-Jun-20 21:00N 05°32' E 000°02'4 7.2
2018-Jun-20 20:31N 05°35' E 000°01'0 0.6
2018-Jun-20 20:00N 05°35' E 000°01'0 0.0
2018-Jun-20 19:30N 05°35' E 000°01'0 0.0
2018-Jun-20 19:00N 05°35' E 000°01'0 0.0
2018-Jun-20 18:31N 05°35' E 000°01'0 0.0
2018-Jun-20 18:00N 05°35' E 000°01'1 1.0
2018-Jun-20 17:30N 05°36' E 000°01'0 0.0
2018-Jun-20 17:01N 05°36' E 000°01'0 0.0
2018-Jun-20 16:31N 05°36' E 000°01'0 0.0
2018-Jun-20 16:00N 05°36' E 000°01'0 0.0
2018-Jun-20 15:31N 05°36' E 000°01'0 0.0
2018-Jun-20 15:00N 05°36' E 000°01'0 0.0
2018-Jun-20 14:30N 05°36' E 000°01'0 0.0
2018-Jun-20 14:01N 05°36' E 000°01'0 0.0
2018-Jun-20 13:30N 05°36' E 000°01'0 0.0
2018-Jun-20 13:01N 05°36' E 000°01'0 0.0
2018-Jun-20 12:31N 05°36' E 000°01'0 0.0
2018-Jun-20 12:00N 05°36' E 000°01'0 0.0
2018-Jun-20 11:30N 05°36' E 000°01'0 0.0
2018-Jun-20 11:01N 05°36' E 000°01'0 0.0
2018-Jun-20 10:30N 05°36' E 000°01'0 0.0
2018-Jun-20 10:00N 05°36' E 000°01'0 0.0
2018-Jun-20 09:31N 05°36' E 000°01'0 0.1
2018-Jun-20 09:00N 05°35' E 000°01'1 1.3
2018-Jun-20 08:30N 05°36' E 000°02'1 1.9
2018-Jun-20 08:01N 05°35' E 000°02'3 5.0
2018-Jun-20 07:30N 05°34' E 000°04'3 5.4
2018-Jun-20 07:00N 05°32' E 000°06'3 6.6
2018-Jun-20 06:29N 05°29' E 000°09'3 6.7
2018-Jun-20 05:59N 05°27' E 000°11'3 6.6
2018-Jun-20 05:30N 05°25' E 000°13'3 6.6
2018-Jun-20 05:00N 05°23' E 000°16'3 6.3
2018-Jun-20 04:31N 05°21' E 000°18'3 6.2
2018-Jun-20 04:00N 05°21' E 000°22'3 6.1
2018-Jun-20 03:25N 05°21' E 000°25'2 5.9
2018-Jun-20 03:00N 05°21' E 000°28'3 5.9
2018-Jun-20 02:27N 05°22' E 000°31'62 3.0
2018-Jun-19 05:54N 06°02' E 001°18'0 0.0
2018-Jun-19 05:30N 06°02' E 001°18'0 0.0
2018-Jun-19 05:00N 06°02' E 001°18'0 0.0
2018-Jun-19 04:30N 06°02' E 001°18'0 0.0
2018-Jun-19 03:57N 06°02' E 001°18'  
2018-Jun-16 01:44N 06°06' E 001°17'0 0.0
2018-Jun-16 01:26N 06°06' E 001°17'0 0.0
2018-Jun-16 00:59N 06°06' E 001°17'0 0.0
2018-Jun-16 00:29N 06°06' E 001°16'0 0.0
2018-Jun-15 22:50N 06°06' E 001°16'0 0.0
2018-Jun-15 22:23N 06°06' E 001°16'  
Track history (hours):
 
Tides and Currents Weather Stations Pressure Air Temp Water Temp Dewpoint Dewpoint Depression Visibility Wind Speed Wind Dir Waves Ship Positions

Anuket Pearl

Last reported at 2018-Jun-21 00:14 UTC. Time now 2018-Jun-22 18:47 UTC.
Position N 05°08' E 000°12'.

Length 101 m; draft 7 m.

Type: Ship. MMSI: 215338000.

Date/timePositionNaut miles runAvg speedWind from/ knotsBaromVisibWave heightAir tempDewpointWater temp
2018-Jun-21 00:14N 05°08' E 000°12'2 8.3
2018-Jun-20 23:57N 05°10' E 000°11'4 8.2
2018-Jun-20 23:31N 05°14' E 000°10'4 8.1
2018-Jun-20 23:00N 05°17' E 000°09'4 8.2
2018-Jun-20 22:30N 05°21' E 000°07'4 7.9
2018-Jun-20 22:00N 05°25' E 000°05'4 7.9
2018-Jun-20 21:30N 05°28' E 000°04'4 7.8
2018-Jun-20 21:00N 05°32' E 000°02'4 7.2
2018-Jun-20 20:31N 05°35' E 000°01'0 0.6
2018-Jun-20 20:00N 05°35' E 000°01'0 0.0
2018-Jun-20 19:30N 05°35' E 000°01'0 0.0
2018-Jun-20 19:00N 05°35' E 000°01'0 0.0
2018-Jun-20 18:31N 05°35' E 000°01'0 0.0
2018-Jun-20 18:00N 05°35' E 000°01'1 1.0
2018-Jun-20 17:30N 05°36' E 000°01'0 0.0
2018-Jun-20 17:01N 05°36' E 000°01'0 0.0
2018-Jun-20 16:31N 05°36' E 000°01'0 0.0
2018-Jun-20 16:00N 05°36' E 000°01'0 0.0
2018-Jun-20 15:31N 05°36' E 000°01'0 0.0
2018-Jun-20 15:00N 05°36' E 000°01'0 0.0
2018-Jun-20 14:30N 05°36' E 000°01'0 0.0
2018-Jun-20 14:01N 05°36' E 000°01'0 0.0
2018-Jun-20 13:30N 05°36' E 000°01'0 0.0
2018-Jun-20 13:01N 05°36' E 000°01'0 0.0
2018-Jun-20 12:31N 05°36' E 000°01'0 0.0
2018-Jun-20 12:00N 05°36' E 000°01'0 0.0
2018-Jun-20 11:30N 05°36' E 000°01'0 0.0
2018-Jun-20 11:01N 05°36' E 000°01'0 0.0
2018-Jun-20 10:30N 05°36' E 000°01'0 0.0
2018-Jun-20 10:00N 05°36' E 000°01'0 0.0
2018-Jun-20 09:31N 05°36' E 000°01'0 0.1
2018-Jun-20 09:00N 05°35' E 000°01'1 1.3
2018-Jun-20 08:30N 05°36' E 000°02'1 1.9
2018-Jun-20 08:01N 05°35' E 000°02'3 5.0
2018-Jun-20 07:30N 05°34' E 000°04'3 5.4
2018-Jun-20 07:00N 05°32' E 000°06'3 6.6
2018-Jun-20 06:29N 05°29' E 000°09'3 6.7
2018-Jun-20 05:59N 05°27' E 000°11'3 6.6
2018-Jun-20 05:30N 05°25' E 000°13'3 6.6
2018-Jun-20 05:00N 05°23' E 000°16'3 6.3
2018-Jun-20 04:31N 05°21' E 000°18'3 6.2
2018-Jun-20 04:00N 05°21' E 000°22'3 6.1
2018-Jun-20 03:25N 05°21' E 000°25'2 5.9
2018-Jun-20 03:00N 05°21' E 000°28'3 5.9
2018-Jun-20 02:27N 05°22' E 000°31'62 3.0
2018-Jun-19 05:54N 06°02' E 001°18'0 0.0
2018-Jun-19 05:30N 06°02' E 001°18'0 0.0
2018-Jun-19 05:00N 06°02' E 001°18'0 0.0
2018-Jun-19 04:30N 06°02' E 001°18'0 0.0
2018-Jun-19 03:57N 06°02' E 001°18'  
2018-Jun-16 01:44N 06°06' E 001°17'0 0.0
2018-Jun-16 01:26N 06°06' E 001°17'0 0.0
2018-Jun-16 00:59N 06°06' E 001°17'0 0.0
2018-Jun-16 00:29N 06°06' E 001°16'0 0.0
2018-Jun-15 22:50N 06°06' E 001°16'0 0.0
2018-Jun-15 22:23N 06°06' E 001°16'  

Dump ship's entire track history